地図

経路データ

SID SEASON NUMBER BASIN SUBBASIN NAME ISO_TIME NATURE LAT LON WMO_WIND WMO_PRES WMO_AGENCY TRACK_TYPE DIST2LAND LANDFALL IFLAG USA_AGENCY USA_ATCF_ID USA_LAT USA_LON USA_RECORD USA_STATUS USA_WIND USA_PRES USA_SSHS USA_R34_NE USA_R34_SE USA_R34_SW USA_R34_NW USA_R50_NE USA_R50_SE USA_R50_SW USA_R50_NW USA_R64_NE USA_R64_SE USA_R64_SW USA_R64_NW USA_POCI USA_ROCI USA_RMW USA_EYE TOKYO_LAT TOKYO_LON TOKYO_GRADE TOKYO_WIND TOKYO_PRES TOKYO_R50_DIR TOKYO_R50_LONG TOKYO_R50_SHORT TOKYO_R30_DIR TOKYO_R30_LONG TOKYO_R30_SHORT TOKYO_LAND CMA_LAT CMA_LON CMA_CAT CMA_WIND CMA_PRES HKO_LAT HKO_LON HKO_CAT HKO_WIND HKO_PRES NEWDELHI_LAT NEWDELHI_LON NEWDELHI_GRADE NEWDELHI_WIND NEWDELHI_PRES NEWDELHI_CI NEWDELHI_DP NEWDELHI_POCI REUNION_LAT REUNION_LON REUNION_TYPE REUNION_WIND REUNION_PRES REUNION_TNUM REUNION_CI REUNION_RMW REUNION_R34_NE REUNION_R34_SE REUNION_R34_SW REUNION_R34_NW REUNION_R50_NE REUNION_R50_SE REUNION_R50_SW REUNION_R50_NW REUNION_R64_NE REUNION_R64_SE REUNION_R64_SW REUNION_R64_NW BOM_LAT BOM_LON BOM_TYPE BOM_WIND BOM_PRES BOM_TNUM BOM_CI BOM_RMW BOM_R34_NE BOM_R34_SE BOM_R34_SW BOM_R34_NW BOM_R50_NE BOM_R50_SE BOM_R50_SW BOM_R50_NW BOM_R64_NE BOM_R64_SE BOM_R64_SW BOM_R64_NW BOM_ROCI BOM_POCI BOM_EYE BOM_POS_METHOD BOM_PRES_METHOD NADI_LAT NADI_LON NADI_CAT NADI_WIND NADI_PRES WELLINGTON_LAT WELLINGTON_LON WELLINGTON_WIND WELLINGTON_PRES DS824_LAT DS824_LON DS824_STAGE DS824_WIND DS824_PRES TD9636_LAT TD9636_LON TD9636_STAGE TD9636_WIND TD9636_PRES TD9635_LAT TD9635_LON TD9635_WIND TD9635_PRES TD9635_ROCI NEUMANN_LAT NEUMANN_LON NEUMANN_CLASS NEUMANN_WIND NEUMANN_PRES MLC_LAT MLC_LON MLC_CLASS MLC_WIND MLC_PRES USA_GUST BOM_GUST BOM_GUST_PER REUNION_GUST REUNION_GUST_PER USA_SEAHGT USA_SEARAD_NE USA_SEARAD_SE USA_SEARAD_SW USA_SEARAD_NW STORM_SPEED STORM_DIR
1926257N17127 1926 45 WP MM NOT_NAMED 1926-09-13 22:00:00 NR 17.3000 127.100 main 475 460 __________O___ -1 17.3000 127.100 3 12 310
1926257N17127 1926 45 WP MM NOT_NAMED 1926-09-14 00:00:00 NR 17.5631 126.775 main 461 415 __________P___ -1 17.5631 126.775 3 12 310
1926257N17127 1926 45 WP MM NOT_NAMED 1926-09-14 03:00:00 NR 17.9586 126.289 main 418 369 __________P___ -1 17.9586 126.289 3 12 311
1926257N17127 1926 45 WP MM NOT_NAMED 1926-09-14 06:00:00 NR 18.3575 125.812 main 369 319 __________P___ -1 18.3575 125.812 3 12 312
1926257N17127 1926 45 WP MM NOT_NAMED 1926-09-14 09:00:00 NR 18.7629 125.350 main 319 310 __________P___ -1 18.7629 125.350 3 12 313
1926257N17127 1926 45 WP MM NOT_NAMED 1926-09-14 10:00:00 NR 18.9000 125.200 main 310 287 __________O___ -1 18.9000 125.200 4 12 315
1926257N17127 1926 45 WP MM NOT_NAMED 1926-09-14 12:00:00 NR 19.1770 124.909 main 287 262 __________P___ -1 19.1770 124.909 4 12 316
1926257N17127 1926 45 WP MM NOT_NAMED 1926-09-14 15:00:00 NR 19.5929 124.497 main 267 260 __________P___ -1 19.5929 124.497 4 11 318
1926257N17127 1926 45 WP MM NOT_NAMED 1926-09-14 18:00:00 NR 19.9981 124.123 main 260 260 __________P___ -1 19.9981 124.123 4 10 320
1926257N17127 1926 45 WP MM NOT_NAMED 1926-09-14 21:00:00 NR 20.3801 123.797 main 273 267 __________P___ -1 20.3801 123.797 4 10 322
1926257N17127 1926 45 WP MM NOT_NAMED 1926-09-14 22:00:00 NR 20.5000 123.700 main 276 276 __________O___ -1 20.5000 123.700 4 9 320
1926257N17127 1926 45 WP MM NOT_NAMED 1926-09-15 00:00:00 NR 20.7121 123.500 main 286 258 __________P___ -1 20.7121 123.500 4 8 320
1926257N17127 1926 45 WP MM NOT_NAMED 1926-09-15 03:00:00 NR 21.0051 123.244 main 258 227 __________P___ -1 21.0051 123.244 4 7 324
1926257N17127 1926 45 WP MM NOT_NAMED 1926-09-15 06:00:00 NR 21.2899 123.049 main 227 209 __________P___ -1 21.2899 123.049 4 7 333
1926257N17127 1926 45 WP MM NOT_NAMED 1926-09-15 09:00:00 NR 21.5914 122.925 main 209 207 __________P___ -1 21.5914 122.925 4 7 342
1926257N17127 1926 45 WP MM NOT_NAMED 1926-09-15 10:00:00 NR 21.7000 122.900 main 207 195 __________O___ -1 21.7000 122.900 4 7 347
1926257N17127 1926 45 WP MM NOT_NAMED 1926-09-15 12:00:00 NR 21.9303 122.835 main 195 169 __________P___ -1 21.9303 122.835 4 7 351
1926257N17127 1926 45 WP MM NOT_NAMED 1926-09-15 15:00:00 NR 22.3008 122.799 main 169 150 __________P___ -1 22.3008 122.799 4 8 1
1926257N17127 1926 45 WP MM NOT_NAMED 1926-09-15 18:00:00 NR 22.7045 122.855 main 159 153 __________P___ -1 22.7045 122.855 4 9 13
1926257N17127 1926 45 WP MM NOT_NAMED 1926-09-15 21:00:00 NR 23.1446 123.018 main 163 162 __________P___ -1 23.1446 123.018 4 10 21
1926257N17127 1926 45 WP MM NOT_NAMED 1926-09-15 22:00:00 NR 23.3000 123.100 main 169 166 __________O___ -1 23.3000 123.100 4 11 28
1926257N17127 1926 45 WP MM NOT_NAMED 1926-09-16 00:00:00 NR 23.6295 123.297 main 174 167 __________P___ -1 23.6295 123.297 4 12 32
1926257N17127 1926 45 WP MM NOT_NAMED 1926-09-16 03:00:00 NR 24.1554 123.695 main 185 185 __________P___ -1 24.1554 123.695 4 13 37
1926257N17127 1926 45 WP MM NOT_NAMED 1926-09-16 06:00:00 NR 24.6968 124.181 main 224 222 __________P___ -1 24.6968 124.181 4 14 41
1926257N17127 1926 45 WP MM NOT_NAMED 1926-09-16 09:00:00 NR 25.2289 124.717 main 272 273 __________P___ -1 25.2289 124.717 4 14 43
1926257N17127 1926 45 WP MM NOT_NAMED 1926-09-16 10:00:00 NR 25.4000 124.900 main 294 294 __________O___ -1 25.4000 124.900 4 14 45
1926257N17127 1926 45 WP MM NOT_NAMED 1926-09-16 12:00:00 NR 25.7291 125.266 main 340 343 __________P___ -1 25.7291 125.266 4 14 46
1926257N17127 1926 45 WP MM NOT_NAMED 1926-09-16 15:00:00 NR 26.1945 125.815 main 403 403 __________P___ -1 26.1945 125.815 4 13 47
1926257N17127 1926 45 WP MM NOT_NAMED 1926-09-16 18:00:00 NR 26.6348 126.364 main 475 479 __________P___ -1 26.6348 126.364 4 13 49
1926257N17127 1926 45 WP MM NOT_NAMED 1926-09-16 21:00:00 NR 27.0600 126.916 main 534 534 __________P___ -1 27.0600 126.916 4 13 49
1926257N17127 1926 45 WP MM NOT_NAMED 1926-09-16 22:00:00 NR 27.2000 127.100 main 538 __________O___ -1 27.2000 127.100 4 13 50

デジタル台風データ・検索

IBTrACS Databaseについて

本データベースは、米国NOAAが公開する1842年以降の世界の熱帯低気圧のベストトラックデータアーカイブInternational Best Track Archive for Climate Stewardship (IBTrACS)を、ウェブで閲覧しやすい形式に変換したものです。

最終更新日:2021-12-01